sensor_id;sensor_type;location;lat;lon;timestamp;temperature;humidity
578;DHT22;275;48.492;9.214;2023-02-03T00:00:27;9.00;40.60
578;DHT22;275;48.492;9.214;2023-02-03T00:02:57;8.80;40.90
578;DHT22;275;48.492;9.214;2023-02-03T00:05:24;8.70;41.40
578;DHT22;275;48.492;9.214;2023-02-03T00:07:51;9.00;41.30
578;DHT22;275;48.492;9.214;2023-02-03T00:10:19;8.90;40.90
578;DHT22;275;48.492;9.214;2023-02-03T00:12:47;8.90;40.70
578;DHT22;275;48.492;9.214;2023-02-03T00:15:14;8.90;41.00
578;DHT22;275;48.492;9.214;2023-02-03T00:17:41;8.70;41.20
578;DHT22;275;48.492;9.214;2023-02-03T00:20:10;8.80;41.30
578;DHT22;275;48.492;9.214;2023-02-03T00:22:37;8.70;41.20
578;DHT22;275;48.492;9.214;2023-02-03T00:25:04;8.70;41.60
578;DHT22;275;48.492;9.214;2023-02-03T00:27:31;8.70;41.50
578;DHT22;275;48.492;9.214;2023-02-03T00:29:58;8.80;41.70
578;DHT22;275;48.492;9.214;2023-02-03T00:32:25;8.90;42.10
578;DHT22;275;48.492;9.214;2023-02-03T00:34:52;8.60;42.30
578;DHT22;275;48.492;9.214;2023-02-03T00:37:20;8.20;43.50
578;DHT22;275;48.492;9.214;2023-02-03T00:39:47;8.20;43.60
578;DHT22;275;48.492;9.214;2023-02-03T00:42:14;8.10;44.50
578;DHT22;275;48.492;9.214;2023-02-03T00:44:41;8.50;43.40
578;DHT22;275;48.492;9.214;2023-02-03T00:47:08;8.60;42.70
578;DHT22;275;48.492;9.214;2023-02-03T00:49:35;8.50;43.30
578;DHT22;275;48.492;9.214;2023-02-03T00:52:02;8.60;42.50
578;DHT22;275;48.492;9.214;2023-02-03T00:54:30;7.70;45.30
578;DHT22;275;48.492;9.214;2023-02-03T00:56:57;7.60;45.90
578;DHT22;275;48.492;9.214;2023-02-03T00:59:24;8.00;44.70
578;DHT22;275;48.492;9.214;2023-02-03T01:01:51;7.90;45.00
578;DHT22;275;48.492;9.214;2023-02-03T01:04:17;8.20;44.60
578;DHT22;275;48.492;9.214;2023-02-03T01:06:44;8.30;43.90
578;DHT22;275;48.492;9.214;2023-02-03T01:09:11;7.80;45.10
578;DHT22;275;48.492;9.214;2023-02-03T01:11:39;7.80;45.80
578;DHT22;275;48.492;9.214;2023-02-03T01:14:06;7.60;45.90
578;DHT22;275;48.492;9.214;2023-02-03T01:16:33;7.60;45.90
578;DHT22;275;48.492;9.214;2023-02-03T01:19:03;7.50;46.10
578;DHT22;275;48.492;9.214;2023-02-03T01:21:30;7.60;46.40
578;DHT22;275;48.492;9.214;2023-02-03T01:23:58;7.10;47.60
578;DHT22;275;48.492;9.214;2023-02-03T01:26:25;7.10;47.20
578;DHT22;275;48.492;9.214;2023-02-03T01:28:54;7.00;47.60
578;DHT22;275;48.492;9.214;2023-02-03T01:31:23;7.00;47.60
578;DHT22;275;48.492;9.214;2023-02-03T01:33:51;7.00;47.80
578;DHT22;275;48.492;9.214;2023-02-03T01:36:19;6.70;49.40
578;DHT22;275;48.492;9.214;2023-02-03T01:38:46;6.60;49.20
578;DHT22;275;48.492;9.214;2023-02-03T01:41:15;6.60;48.90
578;DHT22;275;48.492;9.214;2023-02-03T01:43:45;6.60;48.70
578;DHT22;275;48.492;9.214;2023-02-03T01:46:24;6.60;49.30
578;DHT22;275;48.492;9.214;2023-02-03T01:48:53;6.70;48.30
578;DHT22;275;48.492;9.214;2023-02-03T01:51:21;6.40;49.20
578;DHT22;275;48.492;9.214;2023-02-03T01:53:50;6.40;49.30
578;DHT22;275;48.492;9.214;2023-02-03T01:56:17;6.50;49.10
578;DHT22;275;48.492;9.214;2023-02-03T01:58:46;7.00;47.90
578;DHT22;275;48.492;9.214;2023-02-03T02:01:13;7.00;47.00
578;DHT22;275;48.492;9.214;2023-02-03T02:03:45;6.70;48.10
578;DHT22;275;48.492;9.214;2023-02-03T02:06:14;7.20;47.20
578;DHT22;275;48.492;9.214;2023-02-03T02:08:45;7.50;46.10
578;DHT22;275;48.492;9.214;2023-02-03T02:11:13;7.50;46.00
578;DHT22;275;48.492;9.214;2023-02-03T02:13:41;7.80;45.30
578;DHT22;275;48.492;9.214;2023-02-03T02:16:12;7.60;45.30
578;DHT22;275;48.492;9.214;2023-02-03T02:18:56;7.40;46.00
578;DHT22;275;48.492;9.214;2023-02-03T02:21:40;7.10;46.50
578;DHT22;275;48.492;9.214;2023-02-03T02:24:53;7.00;47.10
578;DHT22;275;48.492;9.214;2023-02-03T02:27:59;7.50;45.80
578;DHT22;275;48.492;9.214;2023-02-03T02:30:53;7.80;45.40
578;DHT22;275;48.492;9.214;2023-02-03T02:33:34;7.70;44.60
578;DHT22;275;48.492;9.214;2023-02-03T02:36:07;7.20;46.00
578;DHT22;275;48.492;9.214;2023-02-03T02:38:47;7.20;46.60
578;DHT22;275;48.492;9.214;2023-02-03T02:41:18;6.80;47.10
578;DHT22;275;48.492;9.214;2023-02-03T02:43:55;6.80;47.50
578;DHT22;275;48.492;9.214;2023-02-03T02:46:25;7.00;47.00
578;DHT22;275;48.492;9.214;2023-02-03T02:48:58;7.00;47.10
578;DHT22;275;48.492;9.214;2023-02-03T02:51:29;7.00;46.80
578;DHT22;275;48.492;9.214;2023-02-03T02:54:01;7.40;46.00
578;DHT22;275;48.492;9.214;2023-02-03T02:56:29;7.50;45.10
578;DHT22;275;48.492;9.214;2023-02-03T02:58:59;7.40;45.50
578;DHT22;275;48.492;9.214;2023-02-03T03:01:27;7.10;46.10
578;DHT22;275;48.492;9.214;2023-02-03T03:04:06;7.30;45.70
578;DHT22;275;48.492;9.214;2023-02-03T03:06:37;7.50;44.80
578;DHT22;275;48.492;9.214;2023-02-03T03:09:08;7.00;46.60
578;DHT22;275;48.492;9.214;2023-02-03T03:11:39;7.00;46.70
578;DHT22;275;48.492;9.214;2023-02-03T03:14:09;7.00;46.30
578;DHT22;275;48.492;9.214;2023-02-03T03:16:43;7.20;46.00
578;DHT22;275;48.492;9.214;2023-02-03T03:19:13;7.40;45.10
578;DHT22;275;48.492;9.214;2023-02-03T03:21:45;7.30;45.70
578;DHT22;275;48.492;9.214;2023-02-03T03:24:16;7.20;45.60
578;DHT22;275;48.492;9.214;2023-02-03T03:26:48;6.80;46.50
578;DHT22;275;48.492;9.214;2023-02-03T03:29:19;6.90;47.10
578;DHT22;275;48.492;9.214;2023-02-03T03:31:47;7.00;46.60
578;DHT22;275;48.492;9.214;2023-02-03T03:34:16;7.10;46.30
578;DHT22;275;48.492;9.214;2023-02-03T03:36:46;7.80;44.60
578;DHT22;275;48.492;9.214;2023-02-03T03:39:19;7.70;44.20
578;DHT22;275;48.492;9.214;2023-02-03T03:41:55;7.30;45.20
578;DHT22;275;48.492;9.214;2023-02-03T03:44:27;7.20;45.60
578;DHT22;275;48.492;9.214;2023-02-03T03:47:00;7.00;46.20
578;DHT22;275;48.492;9.214;2023-02-03T03:49:31;7.00;46.40
578;DHT22;275;48.492;9.214;2023-02-03T03:52:01;7.40;45.00
578;DHT22;275;48.492;9.214;2023-02-03T03:54:30;7.20;45.60
578;DHT22;275;48.492;9.214;2023-02-03T03:56:59;7.10;45.70
578;DHT22;275;48.492;9.214;2023-02-03T03:59:30;6.90;46.40
578;DHT22;275;48.492;9.214;2023-02-03T04:01:58;7.50;45.10
578;DHT22;275;48.492;9.214;2023-02-03T04:04:31;7.80;44.00
578;DHT22;275;48.492;9.214;2023-02-03T04:06:59;7.40;44.40
578;DHT22;275;48.492;9.214;2023-02-03T04:09:26;7.20;45.60
578;DHT22;275;48.492;9.214;2023-02-03T04:11:53;7.50;44.10
578;DHT22;275;48.492;9.214;2023-02-03T04:14:36;7.60;44.20
578;DHT22;275;48.492;9.214;2023-02-03T04:17:04;7.30;45.00
578;DHT22;275;48.492;9.214;2023-02-03T04:19:32;7.50;44.50
578;DHT22;275;48.492;9.214;2023-02-03T04:21:59;7.90;43.50
578;DHT22;275;48.492;9.214;2023-02-03T04:24:26;8.20;42.40
578;DHT22;275;48.492;9.214;2023-02-03T04:26:53;8.10;42.80
578;DHT22;275;48.492;9.214;2023-02-03T04:29:19;7.80;43.20
578;DHT22;275;48.492;9.214;2023-02-03T04:31:46;7.50;44.10
578;DHT22;275;48.492;9.214;2023-02-03T04:34:13;7.50;44.10
578;DHT22;275;48.492;9.214;2023-02-03T04:36:41;7.90;42.90
578;DHT22;275;48.492;9.214;2023-02-03T04:39:08;7.70;43.70
578;DHT22;275;48.492;9.214;2023-02-03T04:41:35;7.40;44.20
578;DHT22;275;48.492;9.214;2023-02-03T04:44:01;7.60;44.00
578;DHT22;275;48.492;9.214;2023-02-03T04:46:28;8.20;42.40
578;DHT22;275;48.492;9.214;2023-02-03T04:48:55;8.30;42.10
578;DHT22;275;48.492;9.214;2023-02-03T04:51:22;8.30;41.60
578;DHT22;275;48.492;9.214;2023-02-03T04:53:50;7.80;42.60
578;DHT22;275;48.492;9.214;2023-02-03T04:56:17;7.70;43.30
578;DHT22;275;48.492;9.214;2023-02-03T04:58:43;8.20;42.50
578;DHT22;275;48.492;9.214;2023-02-03T05:01:10;7.60;43.10
578;DHT22;275;48.492;9.214;2023-02-03T05:03:37;7.50;43.50
578;DHT22;275;48.492;9.214;2023-02-03T05:06:04;7.60;43.40
578;DHT22;275;48.492;9.214;2023-02-03T05:08:31;7.90;42.80
578;DHT22;275;48.492;9.214;2023-02-03T05:10:59;7.90;42.00
578;DHT22;275;48.492;9.214;2023-02-03T05:13:26;8.00;42.40
578;DHT22;275;48.492;9.214;2023-02-03T05:15:53;7.90;42.20
578;DHT22;275;48.492;9.214;2023-02-03T05:18:20;7.70;42.90
578;DHT22;275;48.492;9.214;2023-02-03T05:20:47;7.20;44.00
578;DHT22;275;48.492;9.214;2023-02-03T05:23:14;7.50;43.90
578;DHT22;275;48.492;9.214;2023-02-03T05:25:42;7.70;43.10
578;DHT22;275;48.492;9.214;2023-02-03T05:28:10;7.40;44.00
578;DHT22;275;48.492;9.214;2023-02-03T05:30:37;7.50;44.60
578;DHT22;275;48.492;9.214;2023-02-03T05:33:04;6.90;45.90
578;DHT22;275;48.492;9.214;2023-02-03T05:35:31;7.00;46.30
578;DHT22;275;48.492;9.214;2023-02-03T05:37:58;7.70;44.80
578;DHT22;275;48.492;9.214;2023-02-03T05:40:25;8.10;42.50
578;DHT22;275;48.492;9.214;2023-02-03T05:43:12;8.00;43.00
578;DHT22;275;48.492;9.214;2023-02-03T05:45:38;7.80;43.30
578;DHT22;275;48.492;9.214;2023-02-03T05:48:05;7.40;44.40
578;DHT22;275;48.492;9.214;2023-02-03T05:50:33;7.40;44.60
578;DHT22;275;48.492;9.214;2023-02-03T05:53:01;7.80;43.60
578;DHT22;275;48.492;9.214;2023-02-03T05:55:32;8.10;42.70
578;DHT22;275;48.492;9.214;2023-02-03T05:57:59;7.80;43.10
578;DHT22;275;48.492;9.214;2023-02-03T06:00:28;8.20;42.80
578;DHT22;275;48.492;9.214;2023-02-03T06:02:56;8.00;42.60
578;DHT22;275;48.492;9.214;2023-02-03T06:05:24;8.10;42.60
578;DHT22;275;48.492;9.214;2023-02-03T06:07:51;8.20;42.30
578;DHT22;275;48.492;9.214;2023-02-03T06:10:18;8.20;41.70
578;DHT22;275;48.492;9.214;2023-02-03T06:12:45;8.00;42.30
578;DHT22;275;48.492;9.214;2023-02-03T06:15:12;7.40;44.10
578;DHT22;275;48.492;9.214;2023-02-03T06:17:43;7.10;44.70
578;DHT22;275;48.492;9.214;2023-02-03T06:20:11;7.00;45.70
578;DHT22;275;48.492;9.214;2023-02-03T06:22:38;7.50;44.60
578;DHT22;275;48.492;9.214;2023-02-03T06:25:05;7.90;43.10
578;DHT22;275;48.492;9.214;2023-02-03T06:27:33;7.60;43.50
578;DHT22;275;48.492;9.214;2023-02-03T06:30:00;7.70;43.20
578;DHT22;275;48.492;9.214;2023-02-03T06:32:27;7.80;43.10
578;DHT22;275;48.492;9.214;2023-02-03T06:34:55;7.70;43.10
578;DHT22;275;48.492;9.214;2023-02-03T06:37:22;7.20;44.50
578;DHT22;275;48.492;9.214;2023-02-03T06:39:48;7.60;43.60
578;DHT22;275;48.492;9.214;2023-02-03T06:42:15;7.30;44.20
578;DHT22;275;48.492;9.214;2023-02-03T06:44:43;7.20;44.30
578;DHT22;275;48.492;9.214;2023-02-03T06:47:09;7.30;44.20
578;DHT22;275;48.492;9.214;2023-02-03T06:49:36;7.10;44.10
578;DHT22;275;48.492;9.214;2023-02-03T06:52:04;7.20;45.10
578;DHT22;275;48.492;9.214;2023-02-03T06:54:31;7.90;42.80
578;DHT22;275;48.492;9.214;2023-02-03T06:56:58;7.90;42.30
578;DHT22;275;48.492;9.214;2023-02-03T06:59:25;8.20;41.40
578;DHT22;275;48.492;9.214;2023-02-03T07:01:51;7.70;42.40
578;DHT22;275;48.492;9.214;2023-02-03T07:04:19;7.10;45.10
578;DHT22;275;48.492;9.214;2023-02-03T07:06:46;7.00;45.20
578;DHT22;275;48.492;9.214;2023-02-03T07:09:14;7.20;45.60
578;DHT22;275;48.492;9.214;2023-02-03T07:11:41;7.60;43.80
578;DHT22;275;48.492;9.214;2023-02-03T07:14:08;7.40;44.80
578;DHT22;275;48.492;9.214;2023-02-03T07:16:35;7.20;45.00
578;DHT22;275;48.492;9.214;2023-02-03T07:19:02;6.90;46.00
578;DHT22;275;48.492;9.214;2023-02-03T07:21:29;7.40;44.80
578;DHT22;275;48.492;9.214;2023-02-03T07:23:56;7.50;44.10
578;DHT22;275;48.492;9.214;2023-02-03T07:26:24;7.70;43.80
578;DHT22;275;48.492;9.214;2023-02-03T07:28:51;8.40;42.10
578;DHT22;275;48.492;9.214;2023-02-03T07:31:19;8.30;41.80
578;DHT22;275;48.492;9.214;2023-02-03T07:33:46;8.00;42.60
578;DHT22;275;48.492;9.214;2023-02-03T07:36:14;7.90;43.60
578;DHT22;275;48.492;9.214;2023-02-03T07:38:40;7.90;45.40
578;DHT22;275;48.492;9.214;2023-02-03T07:41:07;7.70;43.40
578;DHT22;275;48.492;9.214;2023-02-03T07:43:35;7.80;42.90
578;DHT22;275;48.492;9.214;2023-02-03T07:46:03;8.30;42.30
578;DHT22;275;48.492;9.214;2023-02-03T07:48:30;8.30;41.60
578;DHT22;275;48.492;9.214;2023-02-03T07:50:56;8.30;41.90
578;DHT22;275;48.492;9.214;2023-02-03T07:53:23;8.30;41.10
578;DHT22;275;48.492;9.214;2023-02-03T07:55:50;7.90;42.20
578;DHT22;275;48.492;9.214;2023-02-03T07:58:17;8.00;42.60
578;DHT22;275;48.492;9.214;2023-02-03T08:00:45;8.00;41.50
578;DHT22;275;48.492;9.214;2023-02-03T08:03:12;7.80;42.70
578;DHT22;275;48.492;9.214;2023-02-03T08:05:38;7.70;43.30
578;DHT22;275;48.492;9.214;2023-02-03T08:08:05;7.50;44.40
578;DHT22;275;48.492;9.214;2023-02-03T08:10:32;7.40;44.10
578;DHT22;275;48.492;9.214;2023-02-03T08:12:59;7.50;44.20
578;DHT22;275;48.492;9.214;2023-02-03T08:15:26;7.90;43.30
578;DHT22;275;48.492;9.214;2023-02-03T08:17:54;8.20;41.90
578;DHT22;275;48.492;9.214;2023-02-03T08:20:21;7.90;43.10
578;DHT22;275;48.492;9.214;2023-02-03T08:22:48;7.50;44.10
578;DHT22;275;48.492;9.214;2023-02-03T08:25:14;7.30;44.70
578;DHT22;275;48.492;9.214;2023-02-03T08:27:41;7.90;43.90
578;DHT22;275;48.492;9.214;2023-02-03T08:30:11;8.00;43.70
578;DHT22;275;48.492;9.214;2023-02-03T08:32:39;7.40;44.10
578;DHT22;275;48.492;9.214;2023-02-03T08:35:07;7.50;44.40
578;DHT22;275;48.492;9.214;2023-02-03T08:37:35;8.00;43.80
578;DHT22;275;48.492;9.214;2023-02-03T08:40:02;8.10;44.30
578;DHT22;275;48.492;9.214;2023-02-03T08:42:29;8.20;43.70
578;DHT22;275;48.492;9.214;2023-02-03T08:44:55;8.30;43.80
578;DHT22;275;48.492;9.214;2023-02-03T08:47:22;8.50;43.10
578;DHT22;275;48.492;9.214;2023-02-03T08:49:49;8.50;42.20
578;DHT22;275;48.492;9.214;2023-02-03T08:52:17;8.60;43.20
578;DHT22;275;48.492;9.214;2023-02-03T08:54:45;9.10;41.50
578;DHT22;275;48.492;9.214;2023-02-03T08:57:12;8.30;42.60
578;DHT22;275;48.492;9.214;2023-02-03T08:59:40;8.50;43.00
578;DHT22;275;48.492;9.214;2023-02-03T09:02:12;8.30;43.40
578;DHT22;275;48.492;9.214;2023-02-03T09:04:39;8.20;44.00
578;DHT22;275;48.492;9.214;2023-02-03T09:07:06;8.10;43.80
578;DHT22;275;48.492;9.214;2023-02-03T09:09:34;7.90;44.60
578;DHT22;275;48.492;9.214;2023-02-03T09:12:01;8.10;44.20
578;DHT22;275;48.492;9.214;2023-02-03T09:14:30;8.30;43.80
578;DHT22;275;48.492;9.214;2023-02-03T09:16:58;7.80;45.00
578;DHT22;275;48.492;9.214;2023-02-03T09:19:25;7.90;45.00
578;DHT22;275;48.492;9.214;2023-02-03T09:21:52;8.20;44.40
578;DHT22;275;48.492;9.214;2023-02-03T09:24:18;8.20;44.20
578;DHT22;275;48.492;9.214;2023-02-03T09:26:48;8.40;44.10
578;DHT22;275;48.492;9.214;2023-02-03T09:29:15;8.20;45.00
578;DHT22;275;48.492;9.214;2023-02-03T09:31:42;8.00;45.40
578;DHT22;275;48.492;9.214;2023-02-03T09:34:11;7.80;45.60
578;DHT22;275;48.492;9.214;2023-02-03T09:36:38;7.90;45.40
578;DHT22;275;48.492;9.214;2023-02-03T09:39:04;8.30;45.30
578;DHT22;275;48.492;9.214;2023-02-03T09:44:34;8.50;44.10
578;DHT22;275;48.492;9.214;2023-02-03T09:47:09;8.10;45.30
578;DHT22;275;48.492;9.214;2023-02-03T09:49:41;8.60;43.80
578;DHT22;275;48.492;9.214;2023-02-03T09:52:13;8.80;43.10
578;DHT22;275;48.492;9.214;2023-02-03T09:54:46;8.40;43.10
578;DHT22;275;48.492;9.214;2023-02-03T09:57:18;8.00;45.00
578;DHT22;275;48.492;9.214;2023-02-03T09:59:47;8.30;44.60
578;DHT22;275;48.492;9.214;2023-02-03T10:05:17;8.20;44.70
578;DHT22;275;48.492;9.214;2023-02-03T10:07:53;8.70;43.80
578;DHT22;275;48.492;9.214;2023-02-03T10:10:33;9.80;40.50
578;DHT22;275;48.492;9.214;2023-02-03T10:13:14;9.20;41.30
578;DHT22;275;48.492;9.214;2023-02-03T10:15:55;9.30;41.40
578;DHT22;275;48.492;9.214;2023-02-03T10:18:27;9.20;41.40
578;DHT22;275;48.492;9.214;2023-02-03T10:20:57;8.60;42.30
578;DHT22;275;48.492;9.214;2023-02-03T10:23:28;8.50;43.00
578;DHT22;275;48.492;9.214;2023-02-03T10:25:57;8.80;42.80
578;DHT22;275;48.492;9.214;2023-02-03T10:28:28;8.40;43.30
578;DHT22;275;48.492;9.214;2023-02-03T10:30:58;8.90;42.40
578;DHT22;275;48.492;9.214;2023-02-03T10:33:26;9.40;41.60
578;DHT22;275;48.492;9.214;2023-02-03T10:35:55;10.00;38.50
578;DHT22;275;48.492;9.214;2023-02-03T10:38:40;9.80;39.00
578;DHT22;275;48.492;9.214;2023-02-03T10:41:10;9.00;41.10
578;DHT22;275;48.492;9.214;2023-02-03T10:43:38;9.10;40.70
578;DHT22;275;48.492;9.214;2023-02-03T10:46:19;8.70;40.90
578;DHT22;275;48.492;9.214;2023-02-03T10:48:46;8.50;42.30
578;DHT22;275;48.492;9.214;2023-02-03T10:51:18;8.60;42.00
578;DHT22;275;48.492;9.214;2023-02-03T10:53:46;8.60;41.40
578;DHT22;275;48.492;9.214;2023-02-03T10:56:15;8.60;41.40
578;DHT22;275;48.492;9.214;2023-02-03T10:58:48;8.30;41.90
578;DHT22;275;48.492;9.214;2023-02-03T11:01:18;8.30;42.40
578;DHT22;275;48.492;9.214;2023-02-03T11:03:55;8.70;41.40
578;DHT22;275;48.492;9.214;2023-02-03T11:06:22;9.00;40.50
578;DHT22;275;48.492;9.214;2023-02-03T11:08:50;9.10;39.60
578;DHT22;275;48.492;9.214;2023-02-03T11:11:20;8.50;40.70
578;DHT22;275;48.492;9.214;2023-02-03T11:13:52;8.80;41.00
578;DHT22;275;48.492;9.214;2023-02-03T11:16:21;8.80;40.20
578;DHT22;275;48.492;9.214;2023-02-03T11:18:54;8.80;40.90
578;DHT22;275;48.492;9.214;2023-02-03T11:21:23;8.80;40.10
578;DHT22;275;48.492;9.214;2023-02-03T11:23:54;9.10;40.40
578;DHT22;275;48.492;9.214;2023-02-03T11:26:24;9.30;39.00
578;DHT22;275;48.492;9.214;2023-02-03T11:28:55;8.80;40.00
578;DHT22;275;48.492;9.214;2023-02-03T11:31:25;8.90;40.20
578;DHT22;275;48.492;9.214;2023-02-03T11:33:57;9.10;39.70
578;DHT22;275;48.492;9.214;2023-02-03T11:36:30;9.00;39.50
578;DHT22;275;48.492;9.214;2023-02-03T11:39:23;8.90;40.00
578;DHT22;275;48.492;9.214;2023-02-03T11:41:51;9.50;38.40
578;DHT22;275;48.492;9.214;2023-02-03T11:44:21;9.20;38.50
578;DHT22;275;48.492;9.214;2023-02-03T11:46:52;8.80;40.30
578;DHT22;275;48.492;9.214;2023-02-03T11:50:04;9.20;39.50
578;DHT22;275;48.492;9.214;2023-02-03T11:53:00;8.80;40.20
578;DHT22;275;48.492;9.214;2023-02-03T11:55:45;8.70;40.40
578;DHT22;275;48.492;9.214;2023-02-03T11:58:44;9.10;39.40
578;DHT22;275;48.492;9.214;2023-02-03T12:01:20;8.70;40.00
578;DHT22;275;48.492;9.214;2023-02-03T12:04:19;8.50;41.40
578;DHT22;275;48.492;9.214;2023-02-03T12:07:02;8.50;41.40
578;DHT22;275;48.492;9.214;2023-02-03T12:09:37;8.90;40.40
578;DHT22;275;48.492;9.214;2023-02-03T12:12:28;8.90;40.50
578;DHT22;275;48.492;9.214;2023-02-03T12:15:04;8.90;40.30
578;DHT22;275;48.492;9.214;2023-02-03T12:18:03;8.60;40.60
578;DHT22;275;48.492;9.214;2023-02-03T12:20:52;8.80;40.80
578;DHT22;275;48.492;9.214;2023-02-03T12:23:33;9.30;39.50
578;DHT22;275;48.492;9.214;2023-02-03T12:26:11;9.40;39.60
578;DHT22;275;48.492;9.214;2023-02-03T12:28:47;9.40;39.20
578;DHT22;275;48.492;9.214;2023-02-03T12:31:24;8.60;41.60
578;DHT22;275;48.492;9.214;2023-02-03T12:33:59;8.60;41.90
578;DHT22;275;48.492;9.214;2023-02-03T12:36:32;8.40;42.60
578;DHT22;275;48.492;9.214;2023-02-03T12:39:05;8.30;42.70
578;DHT22;275;48.492;9.214;2023-02-03T12:41:36;8.50;41.60
578;DHT22;275;48.492;9.214;2023-02-03T12:44:09;8.80;41.30
578;DHT22;275;48.492;9.214;2023-02-03T12:46:41;9.30;39.80
578;DHT22;275;48.492;9.214;2023-02-03T12:49:17;9.80;38.70
578;DHT22;275;48.492;9.214;2023-02-03T12:51:49;9.80;38.00
578;DHT22;275;48.492;9.214;2023-02-03T12:54:28;9.80;38.70
578;DHT22;275;48.492;9.214;2023-02-03T12:57:03;9.10;39.60
578;DHT22;275;48.492;9.214;2023-02-03T12:59:35;8.30;41.90
578;DHT22;275;48.492;9.214;2023-02-03T13:02:13;8.30;42.20
578;DHT22;275;48.492;9.214;2023-02-03T13:04:44;8.50;41.60
578;DHT22;275;48.492;9.214;2023-02-03T13:07:21;8.20;41.90
578;DHT22;275;48.492;9.214;2023-02-03T13:09:56;8.20;42.60
578;DHT22;275;48.492;9.214;2023-02-03T13:12:29;8.10;42.70
578;DHT22;275;48.492;9.214;2023-02-03T13:15:03;8.50;41.80
578;DHT22;275;48.492;9.214;2023-02-03T13:17:38;8.60;41.60
578;DHT22;275;48.492;9.214;2023-02-03T13:20:14;8.20;42.50
578;DHT22;275;48.492;9.214;2023-02-03T13:22:44;8.20;42.60
578;DHT22;275;48.492;9.214;2023-02-03T13:25:16;8.40;42.50
578;DHT22;275;48.492;9.214;2023-02-03T13:27:52;8.40;41.70
578;DHT22;275;48.492;9.214;2023-02-03T13:30:48;8.20;42.30
578;DHT22;275;48.492;9.214;2023-02-03T13:33:45;8.50;42.00
578;DHT22;275;48.492;9.214;2023-02-03T13:39:39;8.60;41.90
578;DHT22;275;48.492;9.214;2023-02-03T13:42:19;8.50;41.60
578;DHT22;275;48.492;9.214;2023-02-03T13:44:49;8.60;41.60
578;DHT22;275;48.492;9.214;2023-02-03T13:47:21;9.10;40.50
578;DHT22;275;48.492;9.214;2023-02-03T13:49:52;9.10;39.80
578;DHT22;275;48.492;9.214;2023-02-03T13:52:27;8.60;41.40
578;DHT22;275;48.492;9.214;2023-02-03T13:54:56;8.90;41.10
578;DHT22;275;48.492;9.214;2023-02-03T13:57:30;9.10;40.50
578;DHT22;275;48.492;9.214;2023-02-03T13:59:59;8.80;40.80
578;DHT22;275;48.492;9.214;2023-02-03T14:05:37;8.50;41.90
578;DHT22;275;48.492;9.214;2023-02-03T14:11:41;8.20;42.70
578;DHT22;275;48.492;9.214;2023-02-03T14:14:41;8.00;43.30
578;DHT22;275;48.492;9.214;2023-02-03T14:20:45;8.60;42.10
578;DHT22;275;48.492;9.214;2023-02-03T14:23:18;8.40;42.70
578;DHT22;275;48.492;9.214;2023-02-03T14:25:48;8.60;42.10
578;DHT22;275;48.492;9.214;2023-02-03T14:28:18;8.50;42.40
578;DHT22;275;48.492;9.214;2023-02-03T14:31:07;8.50;42.10
578;DHT22;275;48.492;9.214;2023-02-03T14:34:05;8.60;42.40
578;DHT22;275;48.492;9.214;2023-02-03T14:36:37;8.40;42.90
578;DHT22;275;48.492;9.214;2023-02-03T14:45:39;9.10;40.70
578;DHT22;275;48.492;9.214;2023-02-03T14:48:27;8.40;42.70
578;DHT22;275;48.492;9.214;2023-02-03T14:51:04;8.00;43.80
578;DHT22;275;48.492;9.214;2023-02-03T14:53:44;8.30;43.50
578;DHT22;275;48.492;9.214;2023-02-03T14:56:24;8.40;43.50
578;DHT22;275;48.492;9.214;2023-02-03T14:59:17;8.30;43.60
578;DHT22;275;48.492;9.214;2023-02-03T15:02:13;8.60;42.90
578;DHT22;275;48.492;9.214;2023-02-03T15:04:41;8.70;42.60
578;DHT22;275;48.492;9.214;2023-02-03T15:07:33;9.00;41.20
578;DHT22;275;48.492;9.214;2023-02-03T15:10:00;8.60;42.80
578;DHT22;275;48.492;9.214;2023-02-03T15:12:34;8.60;41.90
578;DHT22;275;48.492;9.214;2023-02-03T15:15:22;8.60;42.80
578;DHT22;275;48.492;9.214;2023-02-03T15:17:51;8.40;42.80
578;DHT22;275;48.492;9.214;2023-02-03T15:20:37;8.10;44.10
578;DHT22;275;48.492;9.214;2023-02-03T15:23:18;8.20;44.00
578;DHT22;275;48.492;9.214;2023-02-03T15:25:52;8.40;43.70
578;DHT22;275;48.492;9.214;2023-02-03T15:28:20;8.30;43.80
578;DHT22;275;48.492;9.214;2023-02-03T15:30:51;8.30;44.20
578;DHT22;275;48.492;9.214;2023-02-03T15:33:21;8.20;44.90
578;DHT22;275;48.492;9.214;2023-02-03T15:35:50;8.00;45.10
578;DHT22;275;48.492;9.214;2023-02-03T15:38:20;8.40;44.70
578;DHT22;275;48.492;9.214;2023-02-03T15:40:51;8.40;44.10
578;DHT22;275;48.492;9.214;2023-02-03T15:43:22;8.40;44.20
578;DHT22;275;48.492;9.214;2023-02-03T15:45:59;8.70;43.60
578;DHT22;275;48.492;9.214;2023-02-03T15:48:37;8.80;43.80
578;DHT22;275;48.492;9.214;2023-02-03T15:51:09;8.40;44.20
578;DHT22;275;48.492;9.214;2023-02-03T15:53:44;8.70;43.30
578;DHT22;275;48.492;9.214;2023-02-03T15:56:19;8.60;43.70
578;DHT22;275;48.492;9.214;2023-02-03T15:58:47;8.70;43.50
578;DHT22;275;48.492;9.214;2023-02-03T16:01:18;9.20;42.40
578;DHT22;275;48.492;9.214;2023-02-03T16:03:49;8.90;42.80
578;DHT22;275;48.492;9.214;2023-02-03T16:06:22;8.60;43.50
578;DHT22;275;48.492;9.214;2023-02-03T16:08:52;8.60;43.40
578;DHT22;275;48.492;9.214;2023-02-03T16:11:26;8.70;43.30
578;DHT22;275;48.492;9.214;2023-02-03T16:13:54;9.00;42.70
578;DHT22;275;48.492;9.214;2023-02-03T16:16:23;9.10;42.00
578;DHT22;275;48.492;9.214;2023-02-03T16:18:54;8.80;42.90
578;DHT22;275;48.492;9.214;2023-02-03T16:21:29;8.40;44.00
578;DHT22;275;48.492;9.214;2023-02-03T16:23:56;8.50;44.00
578;DHT22;275;48.492;9.214;2023-02-03T16:26:25;8.00;44.90
578;DHT22;275;48.492;9.214;2023-02-03T16:29:13;8.30;44.40
578;DHT22;275;48.492;9.214;2023-02-03T16:31:58;8.30;44.60
578;DHT22;275;48.492;9.214;2023-02-03T16:34:44;8.20;44.70
578;DHT22;275;48.492;9.214;2023-02-03T16:37:30;8.20;44.90
578;DHT22;275;48.492;9.214;2023-02-03T16:40:18;8.10;45.40
578;DHT22;275;48.492;9.214;2023-02-03T16:43:03;8.50;44.60
578;DHT22;275;48.492;9.214;2023-02-03T16:45:52;8.60;44.10
578;DHT22;275;48.492;9.214;2023-02-03T16:48:38;9.10;43.20
578;DHT22;275;48.492;9.214;2023-02-03T16:51:27;8.50;45.40
578;DHT22;275;48.492;9.214;2023-02-03T16:53:54;8.40;45.70
578;DHT22;275;48.492;9.214;2023-02-03T16:56:21;8.40;46.10
578;DHT22;275;48.492;9.214;2023-02-03T16:58:48;8.10;46.70
578;DHT22;275;48.492;9.214;2023-02-03T17:01:15;8.60;45.80
578;DHT22;275;48.492;9.214;2023-02-03T17:03:42;9.00;45.10
578;DHT22;275;48.492;9.214;2023-02-03T17:06:11;9.00;44.10
578;DHT22;275;48.492;9.214;2023-02-03T17:08:41;8.50;45.90
578;DHT22;275;48.492;9.214;2023-02-03T17:11:10;9.00;44.30
578;DHT22;275;48.492;9.214;2023-02-03T17:13:39;8.90;44.70
578;DHT22;275;48.492;9.214;2023-02-03T17:16:09;8.60;45.60
578;DHT22;275;48.492;9.214;2023-02-03T17:18:37;8.40;46.10
578;DHT22;275;48.492;9.214;2023-02-03T17:21:05;8.20;46.40
578;DHT22;275;48.492;9.214;2023-02-03T17:23:32;8.80;45.00
578;DHT22;275;48.492;9.214;2023-02-03T17:26:00;8.60;45.20
578;DHT22;275;48.492;9.214;2023-02-03T17:28:27;9.30;43.60
578;DHT22;275;48.492;9.214;2023-02-03T17:30:55;9.10;43.10
578;DHT22;275;48.492;9.214;2023-02-03T17:33:22;8.90;44.40
578;DHT22;275;48.492;9.214;2023-02-03T17:35:59;8.90;44.00
578;DHT22;275;48.492;9.214;2023-02-03T17:38:26;8.40;45.40
578;DHT22;275;48.492;9.214;2023-02-03T17:40:53;8.00;46.60
578;DHT22;275;48.492;9.214;2023-02-03T17:43:21;8.10;46.90
578;DHT22;275;48.492;9.214;2023-02-03T17:45:48;8.30;45.80